sensor_id;sensor_type;location;lat;lon;timestamp;temperature;humidity
61201;DHT22;47065;52.898;6.992;2022-12-07T00:01:10;2.90;99.90
61201;DHT22;47065;52.898;6.992;2022-12-07T00:03:38;2.80;99.90
61201;DHT22;47065;52.898;6.992;2022-12-07T00:06:05;2.80;99.90
61201;DHT22;47065;52.898;6.992;2022-12-07T00:08:32;2.70;99.90
61201;DHT22;47065;52.898;6.992;2022-12-07T00:11:07;2.70;99.90
61201;DHT22;47065;52.898;6.992;2022-12-07T00:13:33;2.60;99.90
61201;DHT22;47065;52.898;6.992;2022-12-07T00:16:19;2.60;99.90
61201;DHT22;47065;52.898;6.992;2022-12-07T00:18:45;2.60;99.90
61201;DHT22;47065;52.898;6.992;2022-12-07T00:21:19;2.60;99.90
61201;DHT22;47065;52.898;6.992;2022-12-07T00:23:46;2.50;99.90
61201;DHT22;47065;52.898;6.992;2022-12-07T00:26:16;2.50;99.90
61201;DHT22;47065;52.898;6.992;2022-12-07T00:28:50;2.50;99.90
61201;DHT22;47065;52.898;6.992;2022-12-07T00:31:18;2.50;99.90
61201;DHT22;47065;52.898;6.992;2022-12-07T00:33:44;2.50;99.90
61201;DHT22;47065;52.898;6.992;2022-12-07T00:36:13;2.40;99.90
61201;DHT22;47065;52.898;6.992;2022-12-07T00:38:39;2.40;99.90
61201;DHT22;47065;52.898;6.992;2022-12-07T00:41:26;2.40;99.90
61201;DHT22;47065;52.898;6.992;2022-12-07T00:43:52;2.40;99.90
61201;DHT22;47065;52.898;6.992;2022-12-07T00:46:19;2.50;99.90
61201;DHT22;47065;52.898;6.992;2022-12-07T00:48:46;2.50;99.90
61201;DHT22;47065;52.898;6.992;2022-12-07T00:51:13;2.60;99.90
61201;DHT22;47065;52.898;6.992;2022-12-07T00:53:39;2.60;99.90
61201;DHT22;47065;52.898;6.992;2022-12-07T00:56:12;2.60;99.90
61201;DHT22;47065;52.898;6.992;2022-12-07T00:58:38;2.70;99.90
61201;DHT22;47065;52.898;6.992;2022-12-07T01:01:05;2.70;99.90
61201;DHT22;47065;52.898;6.992;2022-12-07T01:03:31;2.70;99.90
61201;DHT22;47065;52.898;6.992;2022-12-07T01:05:57;2.80;99.90
61201;DHT22;47065;52.898;6.992;2022-12-07T01:08:24;2.80;99.90
61201;DHT22;47065;52.898;6.992;2022-12-07T01:11:01;2.80;99.90
61201;DHT22;47065;52.898;6.992;2022-12-07T01:13:27;2.70;99.90
61201;DHT22;47065;52.898;6.992;2022-12-07T01:15:57;2.70;99.90
61201;DHT22;47065;52.898;6.992;2022-12-07T01:18:26;2.70;99.90
61201;DHT22;47065;52.898;6.992;2022-12-07T01:21:14;2.60;99.90
61201;DHT22;47065;52.898;6.992;2022-12-07T01:23:40;2.50;99.90
61201;DHT22;47065;52.898;6.992;2022-12-07T01:26:09;2.50;99.90
61201;DHT22;47065;52.898;6.992;2022-12-07T01:28:36;2.40;99.90
61201;DHT22;47065;52.898;6.992;2022-12-07T01:31:07;2.40;99.90
61201;DHT22;47065;52.898;6.992;2022-12-07T01:33:35;2.40;99.90
61201;DHT22;47065;52.898;6.992;2022-12-07T01:36:06;2.30;99.90
61201;DHT22;47065;52.898;6.992;2022-12-07T01:38:33;2.30;99.90
61201;DHT22;47065;52.898;6.992;2022-12-07T01:40:59;2.30;99.90
61201;DHT22;47065;52.898;6.992;2022-12-07T01:43:27;2.30;99.90
61201;DHT22;47065;52.898;6.992;2022-12-07T01:45:54;2.30;99.90
61201;DHT22;47065;52.898;6.992;2022-12-07T01:48:44;2.30;99.90
61201;DHT22;47065;52.898;6.992;2022-12-07T01:51:11;2.30;99.90
61201;DHT22;47065;52.898;6.992;2022-12-07T01:53:41;2.30;99.90
61201;DHT22;47065;52.898;6.992;2022-12-07T01:56:11;2.40;99.90
61201;DHT22;47065;52.898;6.992;2022-12-07T01:58:42;2.40;99.90
61201;DHT22;47065;52.898;6.992;2022-12-07T02:01:08;2.40;99.90
61201;DHT22;47065;52.898;6.992;2022-12-07T02:03:38;2.40;99.90
61201;DHT22;47065;52.898;6.992;2022-12-07T02:06:05;2.40;99.90
61201;DHT22;47065;52.898;6.992;2022-12-07T02:08:32;2.40;99.90
61201;DHT22;47065;52.898;6.992;2022-12-07T02:10:59;2.40;99.90
61201;DHT22;47065;52.898;6.992;2022-12-07T02:13:30;2.40;99.90
61201;DHT22;47065;52.898;6.992;2022-12-07T02:18:25;2.30;99.90
61201;DHT22;47065;52.898;6.992;2022-12-07T02:24:03;2.20;99.90
61201;DHT22;47065;52.898;6.992;2022-12-07T02:32:04;2.10;99.90
61201;DHT22;47065;52.898;6.992;2022-12-07T02:35:05;2.20;99.90
61201;DHT22;47065;52.898;6.992;2022-12-07T02:42:51;2.40;99.90
61201;DHT22;47065;52.898;6.992;2022-12-07T02:45:21;2.50;99.90
61201;DHT22;47065;52.898;6.992;2022-12-07T02:47:51;2.60;99.90
61201;DHT22;47065;52.898;6.992;2022-12-07T02:50:21;2.60;99.90
61201;DHT22;47065;52.898;6.992;2022-12-07T02:52:47;2.70;99.90
61201;DHT22;47065;52.898;6.992;2022-12-07T02:55:15;2.70;99.90
61201;DHT22;47065;52.898;6.992;2022-12-07T02:58:07;2.70;99.90
61201;DHT22;47065;52.898;6.992;2022-12-07T03:00:45;2.70;99.90
61201;DHT22;47065;52.898;6.992;2022-12-07T03:03:14;2.70;99.90
61201;DHT22;47065;52.898;6.992;2022-12-07T03:08:37;2.70;99.90
61201;DHT22;47065;52.898;6.992;2022-12-07T03:11:10;2.70;99.90
61201;DHT22;47065;52.898;6.992;2022-12-07T03:14:08;2.60;99.90
61201;DHT22;47065;52.898;6.992;2022-12-07T03:16:41;2.50;99.90
61201;DHT22;47065;52.898;6.992;2022-12-07T03:19:17;2.50;99.90
61201;DHT22;47065;52.898;6.992;2022-12-07T03:21:47;2.40;99.90
61201;DHT22;47065;52.898;6.992;2022-12-07T03:24:18;2.30;99.90
61201;DHT22;47065;52.898;6.992;2022-12-07T03:26:48;2.30;99.90
61201;DHT22;47065;52.898;6.992;2022-12-07T03:29:22;2.30;99.90
61201;DHT22;47065;52.898;6.992;2022-12-07T03:32:05;2.20;99.90
61201;DHT22;47065;52.898;6.992;2022-12-07T03:34:46;2.20;99.90
61201;DHT22;47065;52.898;6.992;2022-12-07T03:37:38;2.20;99.90
61201;DHT22;47065;52.898;6.992;2022-12-07T03:42:58;2.30;99.90
61201;DHT22;47065;52.898;6.992;2022-12-07T03:53:43;2.50;99.90
61201;DHT22;47065;52.898;6.992;2022-12-07T03:56:11;2.60;99.90
61201;DHT22;47065;52.898;6.992;2022-12-07T03:58:38;2.70;99.90
61201;DHT22;47065;52.898;6.992;2022-12-07T04:01:04;2.70;99.90
61201;DHT22;47065;52.898;6.992;2022-12-07T04:03:30;2.80;99.90
61201;DHT22;47065;52.898;6.992;2022-12-07T04:05:55;2.90;99.90
61201;DHT22;47065;52.898;6.992;2022-12-07T04:08:21;2.90;99.90
61201;DHT22;47065;52.898;6.992;2022-12-07T04:10:47;2.90;99.90
61201;DHT22;47065;52.898;6.992;2022-12-07T04:13:12;2.90;99.90
61201;DHT22;47065;52.898;6.992;2022-12-07T04:15:38;3.00;99.90
61201;DHT22;47065;52.898;6.992;2022-12-07T04:18:04;2.90;99.90
61201;DHT22;47065;52.898;6.992;2022-12-07T04:20:29;3.00;99.90
61201;DHT22;47065;52.898;6.992;2022-12-07T04:22:55;3.00;99.90
61201;DHT22;47065;52.898;6.992;2022-12-07T04:25:21;3.10;99.90
61201;DHT22;47065;52.898;6.992;2022-12-07T04:27:46;3.10;99.90
61201;DHT22;47065;52.898;6.992;2022-12-07T04:30:12;3.20;99.90
61201;DHT22;47065;52.898;6.992;2022-12-07T04:32:38;3.20;99.90
61201;DHT22;47065;52.898;6.992;2022-12-07T04:35:04;3.20;99.90
61201;DHT22;47065;52.898;6.992;2022-12-07T04:37:30;3.20;99.90
61201;DHT22;47065;52.898;6.992;2022-12-07T04:39:56;3.20;99.90
61201;DHT22;47065;52.898;6.992;2022-12-07T04:42:21;3.10;99.90
61201;DHT22;47065;52.898;6.992;2022-12-07T04:44:47;3.10;99.90
61201;DHT22;47065;52.898;6.992;2022-12-07T04:47:12;3.10;99.90
61201;DHT22;47065;52.898;6.992;2022-12-07T04:49:38;3.00;99.90
61201;DHT22;47065;52.898;6.992;2022-12-07T04:52:04;3.00;99.90
61201;DHT22;47065;52.898;6.992;2022-12-07T04:54:29;3.00;99.90
61201;DHT22;47065;52.898;6.992;2022-12-07T04:56:55;2.90;99.90
61201;DHT22;47065;52.898;6.992;2022-12-07T04:59:21;2.90;99.90
61201;DHT22;47065;52.898;6.992;2022-12-07T05:01:46;2.80;99.90
61201;DHT22;47065;52.898;6.992;2022-12-07T05:04:12;2.70;99.90
61201;DHT22;47065;52.898;6.992;2022-12-07T05:06:38;2.70;99.90
61201;DHT22;47065;52.898;6.992;2022-12-07T05:09:04;2.60;99.90
61201;DHT22;47065;52.898;6.992;2022-12-07T05:11:30;2.60;99.90
61201;DHT22;47065;52.898;6.992;2022-12-07T05:14:12;2.50;99.90
61201;DHT22;47065;52.898;6.992;2022-12-07T05:16:39;2.50;99.90
61201;DHT22;47065;52.898;6.992;2022-12-07T05:19:06;2.40;99.90
61201;DHT22;47065;52.898;6.992;2022-12-07T05:21:32;2.40;99.90
61201;DHT22;47065;52.898;6.992;2022-12-07T05:23:57;2.50;99.90
61201;DHT22;47065;52.898;6.992;2022-12-07T05:26:23;2.40;99.90
61201;DHT22;47065;52.898;6.992;2022-12-07T05:28:53;2.40;99.90
61201;DHT22;47065;52.898;6.992;2022-12-07T05:31:19;2.40;99.90
61201;DHT22;47065;52.898;6.992;2022-12-07T05:33:45;2.40;99.90
61201;DHT22;47065;52.898;6.992;2022-12-07T05:36:11;2.40;99.90
61201;DHT22;47065;52.898;6.992;2022-12-07T05:38:37;2.30;99.90
61201;DHT22;47065;52.898;6.992;2022-12-07T05:41:04;2.40;99.90
61201;DHT22;47065;52.898;6.992;2022-12-07T05:43:30;2.40;99.90
61201;DHT22;47065;52.898;6.992;2022-12-07T05:45:56;2.50;99.90
61201;DHT22;47065;52.898;6.992;2022-12-07T05:48:23;2.60;99.90
61201;DHT22;47065;52.898;6.992;2022-12-07T05:50:49;2.70;99.90
61201;DHT22;47065;52.898;6.992;2022-12-07T05:53:15;2.70;99.90
61201;DHT22;47065;52.898;6.992;2022-12-07T05:55:40;2.70;99.90
61201;DHT22;47065;52.898;6.992;2022-12-07T05:58:06;2.60;99.90
61201;DHT22;47065;52.898;6.992;2022-12-07T06:00:51;2.60;99.90
61201;DHT22;47065;52.898;6.992;2022-12-07T06:03:16;2.50;99.90
61201;DHT22;47065;52.898;6.992;2022-12-07T06:05:42;2.50;99.90
61201;DHT22;47065;52.898;6.992;2022-12-07T06:08:08;2.40;99.90
61201;DHT22;47065;52.898;6.992;2022-12-07T06:10:33;2.40;99.90
61201;DHT22;47065;52.898;6.992;2022-12-07T06:12:59;2.40;99.90
61201;DHT22;47065;52.898;6.992;2022-12-07T06:15:25;2.30;99.90
61201;DHT22;47065;52.898;6.992;2022-12-07T06:17:50;2.20;99.90
61201;DHT22;47065;52.898;6.992;2022-12-07T06:20:16;2.20;99.90
61201;DHT22;47065;52.898;6.992;2022-12-07T06:22:42;2.20;99.90
61201;DHT22;47065;52.898;6.992;2022-12-07T06:25:08;2.20;99.90
61201;DHT22;47065;52.898;6.992;2022-12-07T06:27:34;2.10;99.90
61201;DHT22;47065;52.898;6.992;2022-12-07T06:30:00;2.20;99.90
61201;DHT22;47065;52.898;6.992;2022-12-07T06:32:32;2.20;99.90
61201;DHT22;47065;52.898;6.992;2022-12-07T06:34:58;2.20;99.90
61201;DHT22;47065;52.898;6.992;2022-12-07T06:37:24;2.20;99.90
61201;DHT22;47065;52.898;6.992;2022-12-07T06:39:50;2.20;99.90
61201;DHT22;47065;52.898;6.992;2022-12-07T06:42:15;2.10;99.90
61201;DHT22;47065;52.898;6.992;2022-12-07T06:44:41;2.10;99.90
61201;DHT22;47065;52.898;6.992;2022-12-07T06:47:07;2.00;99.90
61201;DHT22;47065;52.898;6.992;2022-12-07T06:49:33;2.00;99.90
61201;DHT22;47065;52.898;6.992;2022-12-07T06:51:59;2.00;99.90
61201;DHT22;47065;52.898;6.992;2022-12-07T06:54:24;2.00;99.90
61201;DHT22;47065;52.898;6.992;2022-12-07T06:56:50;1.90;99.90
61201;DHT22;47065;52.898;6.992;2022-12-07T06:59:16;1.90;99.90
61201;DHT22;47065;52.898;6.992;2022-12-07T07:01:41;1.90;99.90
61201;DHT22;47065;52.898;6.992;2022-12-07T07:04:07;1.90;99.90
61201;DHT22;47065;52.898;6.992;2022-12-07T07:06:33;1.90;99.90
61201;DHT22;47065;52.898;6.992;2022-12-07T07:08:59;1.90;99.90
61201;DHT22;47065;52.898;6.992;2022-12-07T07:11:24;1.90;99.90
61201;DHT22;47065;52.898;6.992;2022-12-07T07:13:50;1.90;99.90
61201;DHT22;47065;52.898;6.992;2022-12-07T07:16:15;1.90;99.90
61201;DHT22;47065;52.898;6.992;2022-12-07T07:18:41;1.90;99.90
61201;DHT22;47065;52.898;6.992;2022-12-07T07:21:07;2.00;99.90
61201;DHT22;47065;52.898;6.992;2022-12-07T07:23:32;2.00;99.90
61201;DHT22;47065;52.898;6.992;2022-12-07T07:25:58;2.00;99.90
61201;DHT22;47065;52.898;6.992;2022-12-07T07:28:24;2.10;99.90
61201;DHT22;47065;52.898;6.992;2022-12-07T07:30:49;2.10;99.90
61201;DHT22;47065;52.898;6.992;2022-12-07T07:33:15;2.10;99.90
61201;DHT22;47065;52.898;6.992;2022-12-07T07:35:41;2.10;99.90
61201;DHT22;47065;52.898;6.992;2022-12-07T07:38:08;2.10;99.90
61201;DHT22;47065;52.898;6.992;2022-12-07T07:40:34;2.10;99.90
61201;DHT22;47065;52.898;6.992;2022-12-07T07:43:00;2.10;99.90
61201;DHT22;47065;52.898;6.992;2022-12-07T07:45:26;2.20;99.90
61201;DHT22;47065;52.898;6.992;2022-12-07T07:47:52;2.10;99.90
61201;DHT22;47065;52.898;6.992;2022-12-07T07:50:19;2.10;99.90
61201;DHT22;47065;52.898;6.992;2022-12-07T07:52:45;2.10;99.90
61201;DHT22;47065;52.898;6.992;2022-12-07T07:55:11;2.00;99.90
61201;DHT22;47065;52.898;6.992;2022-12-07T07:57:38;2.00;99.90
61201;DHT22;47065;52.898;6.992;2022-12-07T08:00:07;2.00;99.90
61201;DHT22;47065;52.898;6.992;2022-12-07T08:02:33;2.00;99.90
61201;DHT22;47065;52.898;6.992;2022-12-07T08:04:59;2.00;99.90
61201;DHT22;47065;52.898;6.992;2022-12-07T08:07:25;2.00;99.90
61201;DHT22;47065;52.898;6.992;2022-12-07T08:09:50;2.10;99.90
61201;DHT22;47065;52.898;6.992;2022-12-07T08:12:16;2.20;99.90
61201;DHT22;47065;52.898;6.992;2022-12-07T08:14:41;2.30;99.90
61201;DHT22;47065;52.898;6.992;2022-12-07T08:17:07;2.40;99.90
61201;DHT22;47065;52.898;6.992;2022-12-07T08:19:33;2.50;99.90
61201;DHT22;47065;52.898;6.992;2022-12-07T08:21:58;2.60;99.90
61201;DHT22;47065;52.898;6.992;2022-12-07T08:24:24;2.70;99.90
61201;DHT22;47065;52.898;6.992;2022-12-07T08:26:51;2.80;99.90
61201;DHT22;47065;52.898;6.992;2022-12-07T08:29:17;2.80;99.90
61201;DHT22;47065;52.898;6.992;2022-12-07T08:31:43;2.80;99.90
61201;DHT22;47065;52.898;6.992;2022-12-07T08:34:10;2.90;99.90
61201;DHT22;47065;52.898;6.992;2022-12-07T08:36:36;2.90;99.90
61201;DHT22;47065;52.898;6.992;2022-12-07T08:39:02;2.80;99.90
61201;DHT22;47065;52.898;6.992;2022-12-07T08:41:28;2.80;99.90
61201;DHT22;47065;52.898;6.992;2022-12-07T08:43:54;2.80;99.90
61201;DHT22;47065;52.898;6.992;2022-12-07T08:46:34;2.80;99.90
61201;DHT22;47065;52.898;6.992;2022-12-07T08:51:39;2.80;99.90
61201;DHT22;47065;52.898;6.992;2022-12-07T08:54:09;2.80;99.90
61201;DHT22;47065;52.898;6.992;2022-12-07T08:56:36;2.80;99.90
61201;DHT22;47065;52.898;6.992;2022-12-07T08:59:03;2.80;99.90
61201;DHT22;47065;52.898;6.992;2022-12-07T09:01:28;2.80;99.90
61201;DHT22;47065;52.898;6.992;2022-12-07T09:03:54;2.80;99.90
61201;DHT22;47065;52.898;6.992;2022-12-07T09:06:20;2.80;99.90
61201;DHT22;47065;52.898;6.992;2022-12-07T09:08:51;2.80;99.90
61201;DHT22;47065;52.898;6.992;2022-12-07T09:11:19;2.80;99.90
61201;DHT22;47065;52.898;6.992;2022-12-07T09:13:45;2.80;99.90
61201;DHT22;47065;52.898;6.992;2022-12-07T09:16:10;2.90;99.90
61201;DHT22;47065;52.898;6.992;2022-12-07T09:18:36;2.90;99.90
61201;DHT22;47065;52.898;6.992;2022-12-07T09:21:03;3.00;99.90
61201;DHT22;47065;52.898;6.992;2022-12-07T09:23:29;3.00;99.90
61201;DHT22;47065;52.898;6.992;2022-12-07T09:25:58;3.10;99.90
61201;DHT22;47065;52.898;6.992;2022-12-07T09:28:24;3.10;99.90
61201;DHT22;47065;52.898;6.992;2022-12-07T09:30:49;3.20;99.90
61201;DHT22;47065;52.898;6.992;2022-12-07T09:33:15;3.30;99.90
61201;DHT22;47065;52.898;6.992;2022-12-07T09:35:48;3.40;99.90
61201;DHT22;47065;52.898;6.992;2022-12-07T09:38:14;3.40;99.90
61201;DHT22;47065;52.898;6.992;2022-12-07T09:40:41;3.50;99.90
61201;DHT22;47065;52.898;6.992;2022-12-07T09:43:22;3.60;99.90
61201;DHT22;47065;52.898;6.992;2022-12-07T09:45:52;3.70;99.90
61201;DHT22;47065;52.898;6.992;2022-12-07T09:48:36;3.70;99.90
61201;DHT22;47065;52.898;6.992;2022-12-07T09:51:23;3.90;99.90
61201;DHT22;47065;52.898;6.992;2022-12-07T09:53:49;4.00;99.90
61201;DHT22;47065;52.898;6.992;2022-12-07T09:56:17;4.10;99.90
61201;DHT22;47065;52.898;6.992;2022-12-07T09:58:44;4.20;99.90
61201;DHT22;47065;52.898;6.992;2022-12-07T10:01:16;4.20;99.90
61201;DHT22;47065;52.898;6.992;2022-12-07T10:04:09;4.30;99.90
61201;DHT22;47065;52.898;6.992;2022-12-07T10:06:36;4.30;99.90
61201;DHT22;47065;52.898;6.992;2022-12-07T10:09:01;4.30;99.90
61201;DHT22;47065;52.898;6.992;2022-12-07T10:11:28;4.50;99.90
61201;DHT22;47065;52.898;6.992;2022-12-07T10:13:53;4.60;99.90
61201;DHT22;47065;52.898;6.992;2022-12-07T10:18:54;4.80;99.90
61201;DHT22;47065;52.898;6.992;2022-12-07T10:21:22;4.80;99.90
61201;DHT22;47065;52.898;6.992;2022-12-07T10:24:04;4.90;99.90
61201;DHT22;47065;52.898;6.992;2022-12-07T10:26:34;4.90;99.90
61201;DHT22;47065;52.898;6.992;2022-12-07T10:29:24;4.90;99.90
61201;DHT22;47065;52.898;6.992;2022-12-07T10:32:01;4.90;99.90
61201;DHT22;47065;52.898;6.992;2022-12-07T10:34:29;4.90;99.90
61201;DHT22;47065;52.898;6.992;2022-12-07T10:39:56;4.90;99.90
61201;DHT22;47065;52.898;6.992;2022-12-07T10:42:29;4.80;99.90
61201;DHT22;47065;52.898;6.992;2022-12-07T10:45:16;4.90;99.90
61201;DHT22;47065;52.898;6.992;2022-12-07T10:54:04;4.90;99.90
61201;DHT22;47065;52.898;6.992;2022-12-07T11:10:12;4.90;99.90
61201;DHT22;47065;52.898;6.992;2022-12-07T11:15:28;4.90;99.90
61201;DHT22;47065;52.898;6.992;2022-12-07T11:21:10;5.00;99.90
61201;DHT22;47065;52.898;6.992;2022-12-07T11:24:04;5.10;99.90
61201;DHT22;47065;52.898;6.992;2022-12-07T11:29:27;5.20;99.90
61201;DHT22;47065;52.898;6.992;2022-12-07T11:37:33;5.20;99.90
61201;DHT22;47065;52.898;6.992;2022-12-07T11:40:05;5.20;99.90
61201;DHT22;47065;52.898;6.992;2022-12-07T11:42:42;5.20;99.90
61201;DHT22;47065;52.898;6.992;2022-12-07T11:47:54;5.20;99.90
61201;DHT22;47065;52.898;6.992;2022-12-07T11:53:35;5.20;99.90
61201;DHT22;47065;52.898;6.992;2022-12-07T11:56:11;5.10;99.90
61201;DHT22;47065;52.898;6.992;2022-12-07T12:01:18;5.10;99.90
61201;DHT22;47065;52.898;6.992;2022-12-07T12:03:54;5.10;99.90
61201;DHT22;47065;52.898;6.992;2022-12-07T12:06:20;5.10;99.90
61201;DHT22;47065;52.898;6.992;2022-12-07T12:14:21;5.10;99.90
61201;DHT22;47065;52.898;6.992;2022-12-07T12:19:42;4.90;99.90
61201;DHT22;47065;52.898;6.992;2022-12-07T12:22:18;4.80;99.90
61201;DHT22;47065;52.898;6.992;2022-12-07T12:24:48;4.70;99.90
61201;DHT22;47065;52.898;6.992;2022-12-07T12:27:30;4.60;99.90
61201;DHT22;47065;52.898;6.992;2022-12-07T12:29:59;4.60;99.90
61201;DHT22;47065;52.898;6.992;2022-12-07T12:32:44;4.50;99.90
61201;DHT22;47065;52.898;6.992;2022-12-07T12:35:29;4.50;99.90
61201;DHT22;47065;52.898;6.992;2022-12-07T12:40:54;4.40;99.90
61201;DHT22;47065;52.898;6.992;2022-12-07T12:43:43;4.40;99.90
61201;DHT22;47065;52.898;6.992;2022-12-07T12:48:54;4.50;99.90
61201;DHT22;47065;52.898;6.992;2022-12-07T12:51:39;4.50;99.90
61201;DHT22;47065;52.898;6.992;2022-12-07T12:54:12;4.50;99.90
61201;DHT22;47065;52.898;6.992;2022-12-07T12:59:28;4.60;99.90
61201;DHT22;47065;52.898;6.992;2022-12-07T13:04:39;4.60;99.90
61201;DHT22;47065;52.898;6.992;2022-12-07T13:07:11;4.60;99.90
61201;DHT22;47065;52.898;6.992;2022-12-07T13:09:42;4.70;99.90
61201;DHT22;47065;52.898;6.992;2022-12-07T13:12:14;4.70;99.90
61201;DHT22;47065;52.898;6.992;2022-12-07T13:14:53;4.70;99.90
61201;DHT22;47065;52.898;6.992;2022-12-07T13:20:02;4.80;99.90
61201;DHT22;47065;52.898;6.992;2022-12-07T13:25:10;4.90;99.90
61201;DHT22;47065;52.898;6.992;2022-12-07T13:27:41;4.90;99.90
61201;DHT22;47065;52.898;6.992;2022-12-07T13:30:18;5.00;99.90
61201;DHT22;47065;52.898;6.992;2022-12-07T13:32:55;5.00;99.90
61201;DHT22;47065;52.898;6.992;2022-12-07T13:35:33;5.10;99.90
61201;DHT22;47065;52.898;6.992;2022-12-07T13:38:01;5.10;99.90
61201;DHT22;47065;52.898;6.992;2022-12-07T13:40:28;5.10;99.90
61201;DHT22;47065;52.898;6.992;2022-12-07T13:43:04;5.10;99.90
61201;DHT22;47065;52.898;6.992;2022-12-07T13:45:38;5.10;99.90
61201;DHT22;47065;52.898;6.992;2022-12-07T13:48:24;5.10;99.90
61201;DHT22;47065;52.898;6.992;2022-12-07T13:50:57;5.00;99.90
61201;DHT22;47065;52.898;6.992;2022-12-07T13:53:24;5.00;99.90
61201;DHT22;47065;52.898;6.992;2022-12-07T13:55:57;5.10;99.90
61201;DHT22;47065;52.898;6.992;2022-12-07T13:58:24;5.00;99.90
61201;DHT22;47065;52.898;6.992;2022-12-07T14:00:50;5.00;99.90
61201;DHT22;47065;52.898;6.992;2022-12-07T14:05:43;4.90;99.90
61201;DHT22;47065;52.898;6.992;2022-12-07T14:13:34;4.80;99.90
61201;DHT22;47065;52.898;6.992;2022-12-07T14:16:23;4.80;99.90
61201;DHT22;47065;52.898;6.992;2022-12-07T14:18:47;4.80;99.90
61201;DHT22;47065;52.898;6.992;2022-12-07T14:21:14;4.70;99.90
61201;DHT22;47065;52.898;6.992;2022-12-07T14:23:41;4.70;99.90
61201;DHT22;47065;52.898;6.992;2022-12-07T14:26:14;4.60;99.90
61201;DHT22;47065;52.898;6.992;2022-12-07T14:28:41;4.60;99.90
61201;DHT22;47065;52.898;6.992;2022-12-07T14:31:12;4.60;99.90
61201;DHT22;47065;52.898;6.992;2022-12-07T14:33:39;4.50;99.90
61201;DHT22;47065;52.898;6.992;2022-12-07T14:36:04;4.50;99.90
61201;DHT22;47065;52.898;6.992;2022-12-07T14:38:30;4.40;99.90
61201;DHT22;47065;52.898;6.992;2022-12-07T14:40:56;4.40;99.90
61201;DHT22;47065;52.898;6.992;2022-12-07T14:43:45;4.40;99.90
61201;DHT22;47065;52.898;6.992;2022-12-07T14:46:11;4.30;99.90
61201;DHT22;47065;52.898;6.992;2022-12-07T14:48:36;4.30;99.90
61201;DHT22;47065;52.898;6.992;2022-12-07T14:51:02;4.30;99.90
61201;DHT22;47065;52.898;6.992;2022-12-07T14:53:35;4.20;99.90
61201;DHT22;47065;52.898;6.992;2022-12-07T14:56:02;4.20;99.90
61201;DHT22;47065;52.898;6.992;2022-12-07T14:58:28;4.20;99.90
61201;DHT22;47065;52.898;6.992;2022-12-07T15:00:53;4.10;99.90
61201;DHT22;47065;52.898;6.992;2022-12-07T15:03:19;4.20;99.90
61201;DHT22;47065;52.898;6.992;2022-12-07T15:05:44;4.10;99.90
61201;DHT22;47065;52.898;6.992;2022-12-07T15:08:12;4.10;99.90
61201;DHT22;47065;52.898;6.992;2022-12-07T15:10:55;4.10;99.90
61201;DHT22;47065;52.898;6.992;2022-12-07T15:13:21;4.00;99.90
61201;DHT22;47065;52.898;6.992;2022-12-07T15:16:07;3.90;99.90
61201;DHT22;47065;52.898;6.992;2022-12-07T15:18:35;3.90;99.90
61201;DHT22;47065;52.898;6.992;2022-12-07T15:21:00;3.80;99.90
61201;DHT22;47065;52.898;6.992;2022-12-07T15:23:26;3.70;99.90
61201;DHT22;47065;52.898;6.992;2022-12-07T15:25:52;3.60;99.90
61201;DHT22;47065;52.898;6.992;2022-12-07T15:28:17;3.60;99.90
61201;DHT22;47065;52.898;6.992;2022-12-07T15:30:44;3.50;99.90
61201;DHT22;47065;52.898;6.992;2022-12-07T15:33:11;3.50;99.90
61201;DHT22;47065;52.898;6.992;2022-12-07T15:35:41;3.50;99.90
61201;DHT22;47065;52.898;6.992;2022-12-07T15:38:07;3.50;99.90
61201;DHT22;47065;52.898;6.992;2022-12-07T15:40:33;3.50;99.90
61201;DHT22;47065;52.898;6.992;2022-12-07T15:43:00;3.50;99.90
61201;DHT22;47065;52.898;6.992;2022-12-07T15:45:26;3.50;99.90
61201;DHT22;47065;52.898;6.992;2022-12-07T15:47:52;3.50;99.90
61201;DHT22;47065;52.898;6.992;2022-12-07T15:50:17;3.50;99.90
61201;DHT22;47065;52.898;6.992;2022-12-07T15:52:43;3.60;99.90
61201;DHT22;47065;52.898;6.992;2022-12-07T15:55:09;3.60;99.90
61201;DHT22;47065;52.898;6.992;2022-12-07T15:57:36;3.60;99.90
61201;DHT22;47065;52.898;6.992;2022-12-07T16:00:03;3.60;99.90
61201;DHT22;47065;52.898;6.992;2022-12-07T16:02:29;3.60;99.90
61201;DHT22;47065;52.898;6.992;2022-12-07T16:04:55;3.60;99.90
61201;DHT22;47065;52.898;6.992;2022-12-07T16:07:20;3.50;99.90
61201;DHT22;47065;52.898;6.992;2022-12-07T16:09:47;3.50;99.90
61201;DHT22;47065;52.898;6.992;2022-12-07T16:12:13;3.50;99.90
61201;DHT22;47065;52.898;6.992;2022-12-07T16:14:39;3.40;99.90
61201;DHT22;47065;52.898;6.992;2022-12-07T16:17:06;3.40;99.90
61201;DHT22;47065;52.898;6.992;2022-12-07T16:19:33;3.30;99.90
61201;DHT22;47065;52.898;6.992;2022-12-07T16:21:58;3.30;99.90
61201;DHT22;47065;52.898;6.992;2022-12-07T16:24:25;3.30;99.90
61201;DHT22;47065;52.898;6.992;2022-12-07T16:26:51;3.30;99.90
61201;DHT22;47065;52.898;6.992;2022-12-07T16:29:18;3.30;99.90
61201;DHT22;47065;52.898;6.992;2022-12-07T16:31:44;3.30;99.90
61201;DHT22;47065;52.898;6.992;2022-12-07T16:34:10;3.30;99.90
61201;DHT22;47065;52.898;6.992;2022-12-07T16:36:35;3.30;99.90
61201;DHT22;47065;52.898;6.992;2022-12-07T16:39:02;3.30;99.90
61201;DHT22;47065;52.898;6.992;2022-12-07T16:41:28;3.30;99.90
61201;DHT22;47065;52.898;6.992;2022-12-07T16:43:54;3.40;99.90
61201;DHT22;47065;52.898;6.992;2022-12-07T16:46:19;3.30;99.90
61201;DHT22;47065;52.898;6.992;2022-12-07T16:48:45;3.30;99.90
61201;DHT22;47065;52.898;6.992;2022-12-07T16:51:12;3.30;99.90
61201;DHT22;47065;52.898;6.992;2022-12-07T16:53:40;3.30;99.90
61201;DHT22;47065;52.898;6.992;2022-12-07T16:56:14;3.30;99.90
61201;DHT22;47065;52.898;6.992;2022-12-07T16:58:43;3.30;99.90
61201;DHT22;47065;52.898;6.992;2022-12-07T17:01:14;3.30;99.90
61201;DHT22;47065;52.898;6.992;2022-12-07T17:03:42;3.30;99.90
61201;DHT22;47065;52.898;6.992;2022-12-07T17:06:28;3.30;99.90
61201;DHT22;47065;52.898;6.992;2022-12-07T17:08:55;3.20;99.90
61201;DHT22;47065;52.898;6.992;2022-12-07T17:11:29;3.20;99.90
61201;DHT22;47065;52.898;6.992;2022-12-07T17:13:56;3.20;99.90
61201;DHT22;47065;52.898;6.992;2022-12-07T17:16:41;3.20;99.90
61201;DHT22;47065;52.898;6.992;2022-12-07T17:19:11;3.20;99.90
61201;DHT22;47065;52.898;6.992;2022-12-07T17:21:38;3.20;99.90
61201;DHT22;47065;52.898;6.992;2022-12-07T17:24:06;3.20;99.90
61201;DHT22;47065;52.898;6.992;2022-12-07T17:26:33;3.10;99.90
61201;DHT22;47065;52.898;6.992;2022-12-07T17:28:59;3.20;99.90
61201;DHT22;47065;52.898;6.992;2022-12-07T17:31:25;3.20;99.90
61201;DHT22;47065;52.898;6.992;2022-12-07T17:33:52;3.10;99.90
61201;DHT22;47065;52.898;6.992;2022-12-07T17:36:18;3.10;99.90
61201;DHT22;47065;52.898;6.992;2022-12-07T17:38:45;3.10;99.90
61201;DHT22;47065;52.898;6.992;2022-12-07T17:41:27;3.10;99.90
61201;DHT22;47065;52.898;6.992;2022-12-07T17:44:14;3.10;99.90
61201;DHT22;47065;52.898;6.992;2022-12-07T17:46:41;3.10;99.90
61201;DHT22;47065;52.898;6.992;2022-12-07T17:49:07;3.10;99.90
61201;DHT22;47065;52.898;6.992;2022-12-07T17:51:33;3.10;99.90